sensor_id;sensor_type;location;lat;lon;timestamp;pressure;altitude;pressure_sealevel;temperature;humidity
64158;BME280;50449;51.528;5.076;2023-04-01T00:00:54;99034.94;;;15.67;56.51
64158;BME280;50449;51.528;5.076;2023-04-01T00:03:20;99031.28;;;15.63;56.87
64158;BME280;50449;51.528;5.076;2023-04-01T00:05:47;99040.06;;;15.59;56.64
64158;BME280;50449;51.528;5.076;2023-04-01T00:08:12;99039.75;;;15.61;56.46
64158;BME280;50449;51.528;5.076;2023-04-01T00:10:38;99033.50;;;15.61;56.42
64158;BME280;50449;51.528;5.076;2023-04-01T00:13:04;99032.72;;;15.60;56.90
64158;BME280;50449;51.528;5.076;2023-04-01T00:15:29;99050.50;;;15.57;56.52
64158;BME280;50449;51.528;5.076;2023-04-01T00:17:55;99043.13;;;15.58;56.85
64158;BME280;50449;51.528;5.076;2023-04-01T00:20:21;99041.19;;;15.58;56.43
64158;BME280;50449;51.528;5.076;2023-04-01T00:22:46;99050.16;;;15.59;56.62
64158;BME280;50449;51.528;5.076;2023-04-01T00:25:12;99053.66;;;15.59;57.05
64158;BME280;50449;51.528;5.076;2023-04-01T00:27:37;99050.94;;;15.59;56.68
64158;BME280;50449;51.528;5.076;2023-04-01T00:30:03;99049.34;;;15.58;56.79
64158;BME280;50449;51.528;5.076;2023-04-01T00:32:29;99053.22;;;15.57;56.56
64158;BME280;50449;51.528;5.076;2023-04-01T00:34:56;99055.94;;;15.57;56.58
64158;BME280;50449;51.528;5.076;2023-04-01T00:37:24;99055.94;;;15.57;56.58
64158;BME280;50449;51.528;5.076;2023-04-01T00:39:49;99060.25;;;15.58;56.75
64158;BME280;50449;51.528;5.076;2023-04-01T00:42:15;99062.97;;;15.58;56.76
64158;BME280;50449;51.528;5.076;2023-04-01T00:44:42;99067.13;;;15.56;56.66
64158;BME280;50449;51.528;5.076;2023-04-01T00:47:07;99066.31;;;15.55;56.64
64158;BME280;50449;51.528;5.076;2023-04-01T00:49:37;99072.25;;;15.57;56.69
64158;BME280;50449;51.528;5.076;2023-04-01T00:52:07;99067.91;;;15.56;56.39
64158;BME280;50449;51.528;5.076;2023-04-01T00:54:34;99075.28;;;15.56;56.67
64158;BME280;50449;51.528;5.076;2023-04-01T00:57:34;99076.72;;;15.53;56.86
64158;BME280;50449;51.528;5.076;2023-04-01T01:00:05;99077.84;;;15.52;56.87
64158;BME280;50449;51.528;5.076;2023-04-01T01:02:32;99089.19;;;15.54;56.83
64158;BME280;50449;51.528;5.076;2023-04-01T01:04:58;99087.59;;;15.53;56.54
64158;BME280;50449;51.528;5.076;2023-04-01T01:10:23;99086.81;;;15.53;56.69
64158;BME280;50449;51.528;5.076;2023-04-01T01:18:36;99087.75;;;15.48;56.57
64158;BME280;50449;51.528;5.076;2023-04-01T01:26:53;99094.94;;;15.44;56.52
64158;BME280;50449;51.528;5.076;2023-04-01T01:34:40;99097.34;;;15.46;56.97
64158;BME280;50449;51.528;5.076;2023-04-01T01:37:14;99098.47;;;15.45;56.61
64158;BME280;50449;51.528;5.076;2023-04-01T01:39:42;99105.81;;;15.44;57.01
64158;BME280;50449;51.528;5.076;2023-04-01T01:42:09;99103.22;;;15.39;56.84
64158;BME280;50449;51.528;5.076;2023-04-01T01:44:37;99111.72;;;15.38;56.90
64158;BME280;50449;51.528;5.076;2023-04-01T01:47:03;99108.19;;;15.37;57.08
64158;BME280;50449;51.528;5.076;2023-04-01T01:49:31;99111.72;;;15.38;57.07
64158;BME280;50449;51.528;5.076;2023-04-01T01:51:57;99112.81;;;15.36;57.10
64158;BME280;50449;51.528;5.076;2023-04-01T01:54:22;99116.03;;;15.39;57.17
64158;BME280;50449;51.528;5.076;2023-04-01T01:56:52;99115.25;;;15.38;57.15
64158;BME280;50449;51.528;5.076;2023-04-01T01:59:21;99109.31;;;15.36;56.93
64158;BME280;50449;51.528;5.076;2023-04-01T02:01:51;99107.09;;;15.38;56.84
64158;BME280;50449;51.528;5.076;2023-04-01T02:04:19;99118.28;;;15.36;57.00
64158;BME280;50449;51.528;5.076;2023-04-01T02:06:56;99116.03;;;15.39;56.88
64158;BME280;50449;51.528;5.076;2023-04-01T02:09:23;99130.44;;;15.39;56.67
64158;BME280;50449;51.528;5.076;2023-04-01T02:11:58;99127.72;;;15.39;56.83
64158;BME280;50449;51.528;5.076;2023-04-01T02:14:28;99127.72;;;15.39;56.85
64158;BME280;50449;51.528;5.076;2023-04-01T02:17:07;99131.56;;;15.38;56.87
64158;BME280;50449;51.528;5.076;2023-04-01T02:19:39;99129.94;;;15.37;56.83
64158;BME280;50449;51.528;5.076;2023-04-01T02:22:09;99136.22;;;15.38;56.58
64158;BME280;50449;51.528;5.076;2023-04-01T02:24:37;99131.56;;;15.38;56.58
64158;BME280;50449;51.528;5.076;2023-04-01T02:27:04;99137.66;;;15.35;56.73
64158;BME280;50449;51.528;5.076;2023-04-01T02:29:30;99139.25;;;15.36;56.83
64158;BME280;50449;51.528;5.076;2023-04-01T02:31:55;99139.25;;;15.36;56.69
64158;BME280;50449;51.528;5.076;2023-04-01T02:34:22;99140.03;;;15.36;56.66
64158;BME280;50449;51.528;5.076;2023-04-01T02:36:49;99147.41;;;15.36;56.74
64158;BME280;50449;51.528;5.076;2023-04-01T02:39:15;99145.81;;;15.35;56.84
64158;BME280;50449;51.528;5.076;2023-04-01T02:41:42;99137.94;;;15.33;56.99
64158;BME280;50449;51.528;5.076;2023-04-01T02:44:08;99140.16;;;15.31;57.01
64158;BME280;50449;51.528;5.076;2023-04-01T02:46:34;99145.94;;;15.30;57.25
64158;BME280;50449;51.528;5.076;2023-04-01T02:48:59;99149.47;;;15.30;57.09
64158;BME280;50449;51.528;5.076;2023-04-01T02:51:25;99151.06;;;15.31;56.84
64158;BME280;50449;51.528;5.076;2023-04-01T02:53:51;99158.91;;;15.33;57.00
64158;BME280;50449;51.528;5.076;2023-04-01T02:56:16;99161.13;;;15.31;57.13
64158;BME280;50449;51.528;5.076;2023-04-01T02:58:42;99163.56;;;15.32;56.90
64158;BME280;50449;51.528;5.076;2023-04-01T03:01:08;99157.63;;;15.30;56.77
64158;BME280;50449;51.528;5.076;2023-04-01T03:03:33;99160.34;;;15.30;56.92
64158;BME280;50449;51.528;5.076;2023-04-01T03:06:08;99161.44;;;15.29;57.07
64158;BME280;50449;51.528;5.076;2023-04-01T03:08:34;99166.88;;;15.29;56.91
64158;BME280;50449;51.528;5.076;2023-04-01T03:10:59;99173.16;;;15.30;57.01
64158;BME280;50449;51.528;5.076;2023-04-01T03:13:24;99171.53;;;15.29;56.78
64158;BME280;50449;51.528;5.076;2023-04-01T03:15:50;99175.88;;;15.30;56.98
64158;BME280;50449;51.528;5.076;2023-04-01T03:18:16;99176.16;;;15.28;56.70
64158;BME280;50449;51.528;5.076;2023-04-01T03:20:41;99184.31;;;15.28;57.01
64158;BME280;50449;51.528;5.076;2023-04-01T03:23:07;99183.53;;;15.28;56.65
64158;BME280;50449;51.528;5.076;2023-04-01T03:25:32;99175.66;;;15.26;56.62
64158;BME280;50449;51.528;5.076;2023-04-01T03:27:58;99186.06;;;15.24;57.05
64158;BME280;50449;51.528;5.076;2023-04-01T03:30:25;99190.69;;;15.24;57.01
64158;BME280;50449;51.528;5.076;2023-04-01T03:32:50;99183.66;;;15.23;57.11
64158;BME280;50449;51.528;5.076;2023-04-01T03:35:16;99192.63;;;15.23;56.97
64158;BME280;50449;51.528;5.076;2023-04-01T03:37:41;99201.59;;;15.24;56.96
64158;BME280;50449;51.528;5.076;2023-04-01T03:40:10;99202.38;;;15.24;56.83
64158;BME280;50449;51.528;5.076;2023-04-01T03:42:35;99196.13;;;15.24;57.03
64158;BME280;50449;51.528;5.076;2023-04-01T03:45:02;99199.19;;;15.22;56.91
64158;BME280;50449;51.528;5.076;2023-04-01T03:47:28;99202.72;;;15.23;57.08
64158;BME280;50449;51.528;5.076;2023-04-01T03:49:53;99209.25;;;15.22;56.76
64158;BME280;50449;51.528;5.076;2023-04-01T03:52:19;99206.53;;;15.22;56.85
64158;BME280;50449;51.528;5.076;2023-04-01T03:54:44;99204.13;;;15.20;56.72
64158;BME280;50449;51.528;5.076;2023-04-01T03:57:10;99213.38;;;15.19;56.85
64158;BME280;50449;51.528;5.076;2023-04-01T03:59:35;99208.28;;;15.18;57.26
64158;BME280;50449;51.528;5.076;2023-04-01T04:02:00;99209.38;;;15.17;57.02
64158;BME280;50449;51.528;5.076;2023-04-01T04:04:26;99204.75;;;15.17;56.75
64158;BME280;50449;51.528;5.076;2023-04-01T04:06:53;99214.00;;;15.16;57.08
64158;BME280;50449;51.528;5.076;2023-04-01T04:09:18;99217.84;;;15.15;57.25
64158;BME280;50449;51.528;5.076;2023-04-01T04:11:44;99224.41;;;15.14;57.18
64158;BME280;50449;51.528;5.076;2023-04-01T04:14:09;99221.22;;;15.12;57.17
64158;BME280;50449;51.528;5.076;2023-04-01T04:16:36;99227.44;;;15.12;57.13
64158;BME280;50449;51.528;5.076;2023-04-01T04:19:04;99234.47;;;15.13;57.01
64158;BME280;50449;51.528;5.076;2023-04-01T04:21:30;99241.84;;;15.13;57.15
64158;BME280;50449;51.528;5.076;2023-04-01T04:23:55;99239.91;;;15.13;56.72
64158;BME280;50449;51.528;5.076;2023-04-01T04:26:21;99246.47;;;15.12;56.79
64158;BME280;50449;51.528;5.076;2023-04-01T04:28:46;99237.31;;;15.08;57.00
64158;BME280;50449;51.528;5.076;2023-04-01T04:31:18;99254.94;;;15.11;56.79
64158;BME280;50449;51.528;5.076;2023-04-01T04:33:44;99250.63;;;15.10;56.87
64158;BME280;50449;51.528;5.076;2023-04-01T04:36:10;99251.72;;;15.09;56.93
64158;BME280;50449;51.528;5.076;2023-04-01T04:38:35;99253.63;;;15.08;56.87
64158;BME280;50449;51.528;5.076;2023-04-01T04:41:00;99254.44;;;15.09;56.80
64158;BME280;50449;51.528;5.076;2023-04-01T04:43:26;99263.72;;;15.08;56.85
64158;BME280;50449;51.528;5.076;2023-04-01T04:45:51;99262.91;;;15.07;57.20
64158;BME280;50449;51.528;5.076;2023-04-01T04:48:17;99262.91;;;15.07;57.20
64158;BME280;50449;51.528;5.076;2023-04-01T04:50:49;99273.00;;;15.07;57.24
64158;BME280;50449;51.528;5.076;2023-04-01T04:53:16;99274.09;;;15.06;57.30
64158;BME280;50449;51.528;5.076;2023-04-01T04:55:52;99271.38;;;15.06;56.91
64158;BME280;50449;51.528;5.076;2023-04-01T04:58:18;99282.56;;;15.04;57.30
64158;BME280;50449;51.528;5.076;2023-04-01T05:00:44;99285.78;;;15.06;56.73
64158;BME280;50449;51.528;5.076;2023-04-01T05:03:10;99287.19;;;15.04;56.83
64158;BME280;50449;51.528;5.076;2023-04-01T05:05:35;99289.91;;;15.04;57.19
64158;BME280;50449;51.528;5.076;2023-04-01T05:08:01;99286.38;;;15.03;56.94
64158;BME280;50449;51.528;5.076;2023-04-01T05:10:27;99292.63;;;15.04;57.02
64158;BME280;50449;51.528;5.076;2023-04-01T05:12:52;99302.72;;;15.03;56.92
64158;BME280;50449;51.528;5.076;2023-04-01T05:15:19;99303.00;;;15.02;57.16
64158;BME280;50449;51.528;5.076;2023-04-01T05:17:45;99304.94;;;15.01;56.92
64158;BME280;50449;51.528;5.076;2023-04-01T05:20:12;99306.84;;;15.01;57.08
64158;BME280;50449;51.528;5.076;2023-04-01T05:22:38;99305.25;;;15.00;56.92
64158;BME280;50449;51.528;5.076;2023-04-01T05:25:03;99309.84;;;14.99;57.17
64158;BME280;50449;51.528;5.076;2023-04-01T05:27:29;99319.94;;;14.99;56.73
64158;BME280;50449;51.528;5.076;2023-04-01T05:29:54;99325.69;;;14.97;57.05
64158;BME280;50449;51.528;5.076;2023-04-01T05:32:20;99324.56;;;14.98;56.70
64158;BME280;50449;51.528;5.076;2023-04-01T05:34:45;99334.66;;;14.98;57.04
64158;BME280;50449;51.528;5.076;2023-04-01T05:37:10;99337.38;;;14.98;57.17
64158;BME280;50449;51.528;5.076;2023-04-01T05:39:37;99334.66;;;14.98;57.00
64158;BME280;50449;51.528;5.076;2023-04-01T05:42:03;99331.16;;;14.97;57.06
64158;BME280;50449;51.528;5.076;2023-04-01T05:44:30;99340.09;;;14.98;56.76
64158;BME280;50449;51.528;5.076;2023-04-01T05:46:55;99343.63;;;14.98;57.16
64158;BME280;50449;51.528;5.076;2023-04-01T05:49:21;99351.28;;;14.96;56.92
64158;BME280;50449;51.528;5.076;2023-04-01T05:51:46;99356.69;;;14.96;57.22
64158;BME280;50449;51.528;5.076;2023-04-01T05:54:11;99357.03;;;14.95;56.80
64158;BME280;50449;51.528;5.076;2023-04-01T05:56:37;99361.34;;;14.96;56.97
64158;BME280;50449;51.528;5.076;2023-04-01T05:59:02;99359.75;;;14.95;57.16
64158;BME280;50449;51.528;5.076;2023-04-01T06:01:28;99365.97;;;14.95;57.04
64158;BME280;50449;51.528;5.076;2023-04-01T06:03:53;99369.00;;;14.93;57.28
64158;BME280;50449;51.528;5.076;2023-04-01T06:06:27;99377.16;;;14.93;56.67
64158;BME280;50449;51.528;5.076;2023-04-01T06:08:56;99378.28;;;14.92;56.86
64158;BME280;50449;51.528;5.076;2023-04-01T06:19:57;99394.19;;;14.85;57.15
64158;BME280;50449;51.528;5.076;2023-04-01T06:33:49;99421.88;;;14.87;56.92
64158;BME280;50449;51.528;5.076;2023-04-01T06:36:08;99433.38;;;14.84;57.10
64158;BME280;50449;51.528;5.076;2023-04-01T06:38:48;99429.81;;;14.84;57.09
64158;BME280;50449;51.528;5.076;2023-04-01T06:41:27;99434.16;;;14.85;57.09
64158;BME280;50449;51.528;5.076;2023-04-01T06:44:17;99432.53;;;14.84;57.01
64158;BME280;50449;51.528;5.076;2023-04-01T06:46:59;99441.03;;;14.82;56.89
64158;BME280;50449;51.528;5.076;2023-04-01T06:54:58;99450.25;;;14.81;57.24
64158;BME280;50449;51.528;5.076;2023-04-01T06:57:41;99453.81;;;14.82;56.74
64158;BME280;50449;51.528;5.076;2023-04-01T07:02:52;99467.88;;;14.84;56.99
64158;BME280;50449;51.528;5.076;2023-04-01T07:05:20;99472.22;;;14.85;56.90
64158;BME280;50449;51.528;5.076;2023-04-01T07:07:50;99472.22;;;14.85;56.85
64158;BME280;50449;51.528;5.076;2023-04-01T07:10:44;99472.84;;;14.82;56.91
64158;BME280;50449;51.528;5.076;2023-04-01T07:13:20;99480.16;;;14.81;57.30
64158;BME280;50449;51.528;5.076;2023-04-01T07:16:03;99481.28;;;14.80;57.18
64158;BME280;50449;51.528;5.076;2023-04-01T07:18:44;99487.53;;;14.81;57.17
64158;BME280;50449;51.528;5.076;2023-04-01T07:21:33;99484.00;;;14.80;57.06
64158;BME280;50449;51.528;5.076;2023-04-01T07:24:25;99492.16;;;14.80;57.31
64158;BME280;50449;51.528;5.076;2023-04-01T07:26:56;99500.03;;;14.82;57.01
64158;BME280;50449;51.528;5.076;2023-04-01T07:29:21;99498.09;;;14.82;56.96
64158;BME280;50449;51.528;5.076;2023-04-01T07:34:59;99512.00;;;14.81;57.30
64158;BME280;50449;51.528;5.076;2023-04-01T07:37:52;99516.63;;;14.80;57.05
64158;BME280;50449;51.528;5.076;2023-04-01T07:40:32;99515.03;;;14.79;57.07
64158;BME280;50449;51.528;5.076;2023-04-01T07:43:37;99520.47;;;14.79;57.20
64158;BME280;50449;51.528;5.076;2023-04-01T07:49:15;99532.75;;;14.77;57.04
64158;BME280;50449;51.528;5.076;2023-04-01T07:54:43;99537.06;;;14.78;57.07
64158;BME280;50449;51.528;5.076;2023-04-01T08:00:21;99547.41;;;14.76;56.88
64158;BME280;50449;51.528;5.076;2023-04-01T08:05:25;99553.38;;;14.78;57.28
64158;BME280;50449;51.528;5.076;2023-04-01T08:13:26;99568.28;;;14.80;57.19
64158;BME280;50449;51.528;5.076;2023-04-01T08:16:21;99573.19;;;14.78;57.25
64158;BME280;50449;51.528;5.076;2023-04-01T08:21:38;99588.72;;;14.78;57.33
64158;BME280;50449;51.528;5.076;2023-04-01T08:32:36;99593.84;;;14.79;57.41
64158;BME280;50449;51.528;5.076;2023-04-01T08:35:11;99607.13;;;14.81;57.09
64158;BME280;50449;51.528;5.076;2023-04-01T08:37:41;99602.81;;;14.80;57.34
64158;BME280;50449;51.528;5.076;2023-04-01T08:40:39;99605.53;;;14.80;57.20
64158;BME280;50449;51.528;5.076;2023-04-01T08:43:35;99612.56;;;14.81;57.46
64158;BME280;50449;51.528;5.076;2023-04-01T08:54:14;99634.13;;;14.77;57.54
64158;BME280;50449;51.528;5.076;2023-04-01T08:59:36;99632.19;;;14.78;57.44
64158;BME280;50449;51.528;5.076;2023-04-01T09:02:23;99638.44;;;14.78;57.71
64158;BME280;50449;51.528;5.076;2023-04-01T09:08:17;99646.91;;;14.77;57.58
64158;BME280;50449;51.528;5.076;2023-04-01T09:10:55;99649.63;;;14.77;57.92
64158;BME280;50449;51.528;5.076;2023-04-01T09:24:43;99659.09;;;14.79;57.77
64158;BME280;50449;51.528;5.076;2023-04-01T09:37:34;99675.91;;;14.81;57.69
64158;BME280;50449;51.528;5.076;2023-04-01T09:43:21;99681.84;;;14.83;57.54
64158;BME280;50449;51.528;5.076;2023-04-01T09:48:21;99680.78;;;14.84;57.33
64158;BME280;50449;51.528;5.076;2023-04-01T09:51:31;99680.25;;;14.82;57.76
64158;BME280;50449;51.528;5.076;2023-04-01T10:03:30;99688.69;;;14.81;57.76
64158;BME280;50449;51.528;5.076;2023-04-01T10:17:28;99705.53;;;14.83;57.69
64158;BME280;50449;51.528;5.076;2023-04-01T10:28:48;99728.59;;;14.85;58.00
64158;BME280;50449;51.528;5.076;2023-04-01T10:48:51;99733.75;;;14.87;57.90
64158;BME280;50449;51.528;5.076;2023-04-01T11:16:26;99755.91;;;14.94;57.97
64158;BME280;50449;51.528;5.076;2023-04-01T11:22:00;99763.78;;;14.96;57.85
64158;BME280;50449;51.528;5.076;2023-04-01T11:33:15;99770.81;;;14.97;57.76
64158;BME280;50449;51.528;5.076;2023-04-01T11:35:56;99780.28;;;14.99;57.85
64158;BME280;50449;51.528;5.076;2023-04-01T11:41:22;99779.72;;;15.02;58.06
64158;BME280;50449;51.528;5.076;2023-04-01T11:44:16;99787.88;;;15.02;58.24
64158;BME280;50449;51.528;5.076;2023-04-01T11:52:15;99795.72;;;15.04;58.25
64158;BME280;50449;51.528;5.076;2023-04-01T12:06:19;99815.00;;;15.07;58.09
64158;BME280;50449;51.528;5.076;2023-04-01T12:09:09;99819.31;;;15.08;57.94
64158;BME280;50449;51.528;5.076;2023-04-01T12:14:44;99825.09;;;15.07;57.98
64158;BME280;50449;51.528;5.076;2023-04-01T12:45:33;99856.81;;;15.11;58.56
64158;BME280;50449;51.528;5.076;2023-04-01T12:55:48;99868.94;;;15.19;58.02
64158;BME280;50449;51.528;5.076;2023-04-01T12:58:45;99870.56;;;15.20;58.11
64158;BME280;50449;51.528;5.076;2023-04-01T13:20:48;99890.94;;;15.23;58.58
64158;BME280;50449;51.528;5.076;2023-04-01T13:31:33;99905.06;;;15.25;58.47
64158;BME280;50449;51.528;5.076;2023-04-01T13:36:55;99910.72;;;15.28;58.50
64158;BME280;50449;51.528;5.076;2023-04-01T13:39:39;99903.06;;;15.30;58.49
64158;BME280;50449;51.528;5.076;2023-04-01T13:42:27;99914.22;;;15.29;58.21
64158;BME280;50449;51.528;5.076;2023-04-01T13:45:19;99918.88;;;15.28;58.73
64158;BME280;50449;51.528;5.076;2023-04-01T13:53:31;99924.03;;;15.30;58.36
64158;BME280;50449;51.528;5.076;2023-04-01T14:07:16;99925.34;;;15.32;58.41
64158;BME280;50449;51.528;5.076;2023-04-01T14:12:41;99941.38;;;15.34;58.57
64158;BME280;50449;51.528;5.076;2023-04-01T14:15:25;99939.78;;;15.33;58.76
64158;BME280;50449;51.528;5.076;2023-04-01T14:18:16;99951.16;;;15.35;58.70
64158;BME280;50449;51.528;5.076;2023-04-01T14:21:21;99944.91;;;15.34;58.52
64158;BME280;50449;51.528;5.076;2023-04-01T14:37:19;99971.31;;;15.34;58.71
64158;BME280;50449;51.528;5.076;2023-04-01T14:47:58;99982.72;;;15.36;58.73
64158;BME280;50449;51.528;5.076;2023-04-01T14:50:27;99989.47;;;15.39;58.50
64158;BME280;50449;51.528;5.076;2023-04-01T14:52:59;99990.28;;;15.39;58.65
64158;BME280;50449;51.528;5.076;2023-04-01T14:55:50;99999.28;;;15.40;58.31
64158;BME280;50449;51.528;5.076;2023-04-01T14:58:18;99995.44;;;15.41;58.64
64158;BME280;50449;51.528;5.076;2023-04-01T15:03:22;99999.50;;;15.43;58.27
64158;BME280;50449;51.528;5.076;2023-04-01T15:08:52;100003.59;;;15.41;58.73
64158;BME280;50449;51.528;5.076;2023-04-01T15:26:13;100024.25;;;15.42;58.46
64158;BME280;50449;51.528;5.076;2023-04-01T15:31:50;100031.63;;;15.41;58.23
64158;BME280;50449;51.528;5.076;2023-04-01T16:02:34;100062.59;;;15.45;58.53
64158;BME280;50449;51.528;5.076;2023-04-01T16:05:30;100070.78;;;15.45;58.24
64158;BME280;50449;51.528;5.076;2023-04-01T16:08:37;100068.06;;;15.45;58.32
64158;BME280;50449;51.528;5.076;2023-04-01T16:17:35;100078.13;;;15.45;58.62
64158;BME280;50449;51.528;5.076;2023-04-01T16:22:38;100083.56;;;15.45;58.24
64158;BME280;50449;51.528;5.076;2023-04-01T16:30:48;100096.88;;;15.46;58.26
64158;BME280;50449;51.528;5.076;2023-04-01T16:33:35;100091.44;;;15.46;58.60
64158;BME280;50449;51.528;5.076;2023-04-01T16:36:23;100096.06;;;15.46;58.39
64158;BME280;50449;51.528;5.076;2023-04-01T16:38:52;100096.06;;;15.46;58.76
64158;BME280;50449;51.528;5.076;2023-04-01T16:41:35;100101.50;;;15.46;58.48
64158;BME280;50449;51.528;5.076;2023-04-01T16:44:24;100111.28;;;15.47;58.50
64158;BME280;50449;51.528;5.076;2023-04-01T16:46:59;100106.69;;;15.47;58.24
64158;BME280;50449;51.528;5.076;2023-04-01T16:52:15;100118.38;;;15.48;58.17
64158;BME280;50449;51.528;5.076;2023-04-01T16:57:26;100127.13;;;15.45;58.24
64158;BME280;50449;51.528;5.076;2023-04-01T17:02:35;100134.97;;;15.46;58.67
64158;BME280;50449;51.528;5.076;2023-04-01T17:05:10;100136.91;;;15.46;58.36
64158;BME280;50449;51.528;5.076;2023-04-01T17:19:10;100168.22;;;15.43;58.64
64158;BME280;50449;51.528;5.076;2023-04-01T17:22:04;100175.28;;;15.44;58.45
64158;BME280;50449;51.528;5.076;2023-04-01T17:30:13;100183.44;;;15.44;58.45
64158;BME280;50449;51.528;5.076;2023-04-01T17:41:24;100198.16;;;15.43;58.55
64158;BME280;50449;51.528;5.076;2023-04-01T17:43:55;100207.94;;;15.44;58.54
64158;BME280;50449;51.528;5.076;2023-04-01T17:52:30;100225.16;;;15.40;58.33
64158;BME280;50449;51.528;5.076;2023-04-01T17:55:15;100228.69;;;15.40;58.50
64158;BME280;50449;51.528;5.076;2023-04-01T18:03:21;100246.34;;;15.43;58.56
64158;BME280;50449;51.528;5.076;2023-04-01T18:08:41;100246.63;;;15.41;58.32
64158;BME280;50449;51.528;5.076;2023-04-01T18:13:59;100262.16;;;15.41;58.50
64158;BME280;50449;51.528;5.076;2023-04-01T18:16:41;100275.75;;;15.41;58.19
64158;BME280;50449;51.528;5.076;2023-04-01T18:21:59;100292.34;;;15.39;58.33
64158;BME280;50449;51.528;5.076;2023-04-01T18:24:41;100293.19;;;15.40;58.26
64158;BME280;50449;51.528;5.076;2023-04-01T18:29:42;100304.34;;;15.38;58.53
64158;BME280;50449;51.528;5.076;2023-04-01T18:32:24;100307.88;;;15.39;58.37
64158;BME280;50449;51.528;5.076;2023-04-01T18:34:57;100323.13;;;15.40;58.59
64158;BME280;50449;51.528;5.076;2023-04-01T18:37:41;100323.41;;;15.38;58.43
64158;BME280;50449;51.528;5.076;2023-04-01T18:40:25;100326.13;;;15.38;58.17
64158;BME280;50449;51.528;5.076;2023-04-01T18:43:14;100341.13;;;15.35;58.72
64158;BME280;50449;51.528;5.076;2023-04-01T18:45:50;100334.88;;;15.35;58.56
64158;BME280;50449;51.528;5.076;2023-04-01T18:50:58;100353.59;;;15.36;58.54
64158;BME280;50449;51.528;5.076;2023-04-01T18:53:34;100369.66;;;15.38;58.43
64158;BME280;50449;51.528;5.076;2023-04-01T18:56:13;100369.66;;;15.38;58.13
64158;BME280;50449;51.528;5.076;2023-04-01T18:59:00;100381.13;;;15.35;58.31
64158;BME280;50449;51.528;5.076;2023-04-01T19:04:57;100399.91;;;15.31;58.42
64158;BME280;50449;51.528;5.076;2023-04-01T19:07:40;100400.44;;;15.33;58.41
64158;BME280;50449;51.528;5.076;2023-04-01T19:13:10;100418.38;;;15.34;58.38
64158;BME280;50449;51.528;5.076;2023-04-01T19:15:56;100419.50;;;15.33;58.35
64158;BME280;50449;51.528;5.076;2023-04-01T19:18:43;100421.41;;;15.33;58.44
64158;BME280;50449;51.528;5.076;2023-04-01T19:26:39;100435.59;;;15.30;58.31
64158;BME280;50449;51.528;5.076;2023-04-01T19:37:56;100451.41;;;15.23;58.59
64158;BME280;50449;51.528;5.076;2023-04-01T19:46:05;100476.69;;;15.23;58.57
64158;BME280;50449;51.528;5.076;2023-04-01T19:48:48;100476.97;;;15.22;58.86
64158;BME280;50449;51.528;5.076;2023-04-01T19:51:37;100481.34;;;15.23;58.51
64158;BME280;50449;51.528;5.076;2023-04-01T19:56:47;100484.59;;;15.25;58.62
64158;BME280;50449;51.528;5.076;2023-04-01T19:59:19;100496.28;;;15.25;58.50
64158;BME280;50449;51.528;5.076;2023-04-01T20:01:57;100504.44;;;15.25;58.58
64158;BME280;50449;51.528;5.076;2023-04-01T20:04:40;100512.88;;;15.24;58.55
64158;BME280;50449;51.528;5.076;2023-04-01T20:07:31;100517.25;;;15.25;58.46
64158;BME280;50449;51.528;5.076;2023-04-01T20:15:33;100540.66;;;15.21;58.45
64158;BME280;50449;51.528;5.076;2023-04-01T20:18:02;100539.84;;;15.20;58.60
64158;BME280;50449;51.528;5.076;2023-04-01T20:20:31;100545.00;;;15.22;58.75
64158;BME280;50449;51.528;5.076;2023-04-01T20:25:46;100558.09;;;15.20;58.33
64158;BME280;50449;51.528;5.076;2023-04-01T20:36:51;100585.31;;;15.14;58.28
64158;BME280;50449;51.528;5.076;2023-04-01T20:45:13;100606.53;;;15.12;58.53
64158;BME280;50449;51.528;5.076;2023-04-01T20:53:15;100613.59;;;15.08;58.24
64158;BME280;50449;51.528;5.076;2023-04-01T21:10:00;100642.44;;;15.04;58.16
64158;BME280;50449;51.528;5.076;2023-04-01T21:15:16;100662.31;;;15.05;58.57
64158;BME280;50449;51.528;5.076;2023-04-01T21:28:56;100691.69;;;15.03;58.44
64158;BME280;50449;51.528;5.076;2023-04-01T21:34:28;100696.03;;;15.04;58.28
64158;BME280;50449;51.528;5.076;2023-04-01T21:42:32;100714.28;;;14.98;58.48
64158;BME280;50449;51.528;5.076;2023-04-01T21:53:50;100738.75;;;14.93;58.55
64158;BME280;50449;51.528;5.076;2023-04-01T21:56:49;100742.03;;;14.90;58.39
64158;BME280;50449;51.528;5.076;2023-04-01T21:59:39;100752.09;;;14.89;58.43
64158;BME280;50449;51.528;5.076;2023-04-01T22:02:47;100757.78;;;14.88;58.42
64158;BME280;50449;51.528;5.076;2023-04-01T22:16:56;100791.22;;;14.83;58.52
64158;BME280;50449;51.528;5.076;2023-04-01T22:22:05;100806.19;;;14.86;58.36
64158;BME280;50449;51.528;5.076;2023-04-01T22:35:32;100821.13;;;14.83;58.32
64158;BME280;50449;51.528;5.076;2023-04-01T22:41:50;100828.47;;;14.78;58.24
64158;BME280;50449;51.528;5.076;2023-04-01T22:49:57;100840.44;;;14.77;58.28
64158;BME280;50449;51.528;5.076;2023-04-01T22:54:54;100846.97;;;14.76;58.13
64158;BME280;50449;51.528;5.076;2023-04-01T23:00:04;100853.50;;;14.75;58.24
64158;BME280;50449;51.528;5.076;2023-04-01T23:02:36;100860.56;;;14.76;58.01
64158;BME280;50449;51.528;5.076;2023-04-01T23:05:05;100866.28;;;14.74;58.39
64158;BME280;50449;51.528;5.076;2023-04-01T23:10:15;100879.88;;;14.74;58.08
64158;BME280;50449;51.528;5.076;2023-04-01T23:12:44;100870.06;;;14.73;57.97
64158;BME280;50449;51.528;5.076;2023-04-01T23:15:14;100880.94;;;14.73;58.13
64158;BME280;50449;51.528;5.076;2023-04-01T23:23:35;100899.69;;;14.64;58.12
64158;BME280;50449;51.528;5.076;2023-04-01T23:26:08;100900.75;;;14.63;58.05
64158;BME280;50449;51.528;5.076;2023-04-01T23:31:26;100913.78;;;14.61;58.42
64158;BME280;50449;51.528;5.076;2023-04-01T23:33:58;100908.34;;;14.61;58.27
64158;BME280;50449;51.528;5.076;2023-04-01T23:36:24;100921.94;;;14.61;57.82
64158;BME280;50449;51.528;5.076;2023-04-01T23:38:50;100928.75;;;14.64;58.20